Create Custom Reports and Graphics: Custom Report

Belmont 8000'

Squaw Valley

5/5/21 5:45 PM (-07:00)
Updated Every 15 Minutes
Temp 60.1 °F   4.8
RH 43 %   1
Dew Pt 37.4 °F   4.7
Wet Bulb 47.5 °F   3.9
Wind Dir SW | 224 °
Wind Spd 6.2 mph   2.6
Wind Gust 11.4 mph   3.6
WindChill 60.8 °F   5.3
Daily Min Temp 41.1 °F   2.6
Daily Max Temp 64.5 °F   4.9
Latest Rain 0.00 In
Daily Rain 0.00 In
New Snow 0.0 in
SnowDepth 54.8 in

Last 24 Hours

Squaw-Belmont 8000'

Hourly Data | America/Los_Angeles
as of 5/5/21 5:47 PM PDT
Date & Time Temp (°F) RH (%) Dew Pt (°F) Wet Bulb (°F) Wind Dir (°) Wind Spd (mph) Wind Gust (mph) WindChill (°F) Latest Rain (In) New Snow (in) SnowDepth (in) Daily Min Temp (°F) Daily Max Temp (°F) Daily Rain (In)
5/5/21 - 1700 61.4 39 36.6 47.8 SW | 231 7.4 17.0 61.8 0.00 0.0 54.8 41.1 64.5 0.00
5/5/21 - 1600 62.7 36 35.6 47.9 SW | 221 7.4 15.7 62.6 0.00 0.0 54.9 41.1 64.5 0.00
5/5/21 - 1500 62.4 33 33.3 46.9 SW | 229 7.9 16.0 62.2 0.00 0.0 55.0 41.1 64.5 0.00
5/5/21 - 1400 61.5 30 29.4 45.2 SSW | 210 5.4 16.1 62.8 0.00 0.0 55.7 41.1 64.1 0.00
5/5/21 - 1300 61.8 30 29.7 45.4 S | 182 2.8 7.5 60.4 0.00 0.0 56.1 41.1 62.7 0.00
5/5/21 - 1200 60.0 31 29.3 44.5 S | 177 3.5 10.1 57.9 0.00 0.0 56.3 41.1 60.9 0.00
5/5/21 - 1100 55.7 39 30.9 43.2 SSE | 151 3.0 7.2 53.1 0.00 0.0 56.4 41.1 55.8 0.00
5/5/21 - 1000 51.4 42 29.3 40.7 SSE | 167 3.8 7.6 49.5 0.00 0.0 56.6 41.1 51.5 0.00
5/5/21 - 0900 49.4 43 28.1 39.2 SSE | 155 2.7 6.6 47.3 0.00 0.0 56.7 41.1 49.4 0.00
5/5/21 - 0800 46.6 47 27.5 37.7 SSE | 157 2.0 6.2 45.2 0.00 0.0 56.7 41.1 46.6 0.00
5/5/21 - 0700 44.1 50 26.5 36.1 S | 180 2.4 7.7 42.2 0.00 0.0 56.6 41.1 46.6 0.00
5/5/21 - 0600 41.7 54 26.4 34.8 SSW | 196 2.4 5.8 41.3 0.00 0.0 56.7 41.1 46.6 0.00
5/5/21 - 0500 41.8 64 30.6 36.5 S | 190 0.9 5.3 42.1 0.00 0.0 56.5 41.1 46.6 0.00
5/5/21 - 0400 43.5 64 32.3 38.0 SE | 135 0.8 4.7 42.5 0.00 0.0 56.6 41.6 46.6 0.00
5/5/21 - 0300 42.0 66 31.6 37.0 N | 6 0.5 3.0 43.3 0.00 0.0 56.7 42.0 46.6 0.00
5/5/21 - 0200 42.6 62 30.4 36.8 SE | 138 0.4 3.7 43.6 0.00 0.0 56.7 42.1 46.6 0.00
5/5/21 - 0100 44.5 55 29.2 37.3 S | 173 0.2 2.1 45.3 0.00 0.0 56.7 43.8 46.6 0.00
5/5/21 - 0000 45.9 48 27.2 37.2 SSW | 193 0.2 1.3 46.5 0.00 0.0 56.7 38.6 59.6 0.00
5/4/21 - 2300 47.4 37 22.6 36.5 NNW | 332 0.3 2.0 47.7 0.00 0.0 56.7 38.6 59.6 0.00
5/4/21 - 2200 47.2 37 22.0 36.2 W | 269 1.3 4.7 46.7 0.00 0.0 56.7 38.6 59.6 0.00
5/4/21 - 2100 47.0 38 23.0 36.3 WSW | 254 5.4 12.3 44.2 0.00 0.0 56.6 38.6 59.6 0.00
5/4/21 - 2000 47.1 58 33.0 40.0 WSW | 245 7.7 14.3 45.6 0.00 0.0 56.6 38.6 59.6 0.00
5/4/21 - 1900 50.4 50 32.2 41.2 WSW | 238 8.9 17.1 49.9 0.00 0.0 56.5 38.6 59.6 0.00
5/4/21 - 1800 52.8 46 32.7 42.6 SW | 232 8.8 16.4 55.3 0.00 0.0 56.8 38.6 59.6 0.00
5/4/21 - 1700 56.8 38 31.6 43.9 SW | 232 8.1 16.3 57.1 0.00 0.0 56.8 38.6 59.6 0.00
Max 62.7 66 36.6 47.9 - 8.9 17.1 62.8 0.00 0.0 56.8 43.8 64.5 0.00
Avg 50.7 45 29.6 40.3 - 3.8 9.1 50.2 0.00 0.0 56.4 - - -
Min 41.7 30 22.0 34.8 - 0.2 1.3 41.3 0.00 0.0 54.8 38.6 46.6 0.00
Total - - - - - - - - 0.00 - - - - -

Last 30 Days

Squaw-Belmont 8000'

Daily Data | America/Los_Angeles
as of 5/5/21 5:47 PM PDT
Date Daily Max Temp (°F) Time of Max Temp Daily Min Temp (°F) Time of Min Temp Daily Rain (In) Seasonal Rainfall (In) New Snow (in) SnowDepth (in) Wind Spd (mph) Daily Max Wind (mph) Time of Max Wind Max Wind Dir (°) Max RH (%) Min RH (%) Wet Bulb (°F) WetB Hrs <28F (hrs) Bat Volt Min Day (V)
5/4/21 59.6 1522 38.6 0531 0.00 126.10 0.0 56.7 4.0 19.0 1412 SW | 219 60 29 37.4 0.0 12.9
5/3/21 58.3 1658 32.0 0622 0.00 126.10 0.0 58.4 4.5 15.8 0944 ENE | 70 68 23 33.0 0.3 12.9
5/2/21 49.7 1538 32.4 0609 0.00 126.10 0.0 59.6 5.3 16.6 1646 NNE | 22 96 37 34.4 0.0 12.9
5/1/21 52.9 1257 37.0 2359 0.00 126.10 0.0 61.0 9.3 27.8 1726 W | 278 87 12 35.1 0.0 12.9
4/30/21 62.0 1450 47.9 2347 0.00 126.10 0.0 62.8 9.7 25.4 1106 WSW | 249 54 18 39.8 0.0 13.0
4/29/21 71.7 1438 42.9 0320 0.00 126.10 0.0 65.4 4.1 16.1 1735 WSW | 244 57 19 40.3 0.0 12.9
4/28/21 63.9 1615 27.1 0529 0.00 126.10 0.0 50.4 2.7 12.9 0046 ESE | 102 71 11 31.6 8.5 12.9
4/27/21 37.9 1549 20.5 0318 0.00 126.10 0.0 71.0 8.2 28.6 0742 ENE | 68 99 50 25.6 16.6 13.0
4/26/21 33.8 1543 16.2 0428 0.18 126.10 0.0 72.4 7.9 21.6 0046 SW | 222 97 50 20.6 24.0 13.0
4/25/21 27.9 1501 19.6 2359 0.44 126.00 4.7 74.6 13.7 41.9 1644 SSW | 207 100 83 24.5 24.0 13.0
4/24/21 35.2 0001 26.2 2028 0.02 125.50 0.0 70.2 17.4 48.2 1136 SW | 227 97 60 28.0 13.0 13.0
4/23/21 50.0 1337 33.8 0526 0.00 125.50 0.0 70.2 8.7 29.8 2355 S | 177 82 38 34.0 0.0 12.9
4/22/21 47.5 1320 34.0 0235 0.00 125.50 0.0 71.4 6.5 26.2 1657 SSW | 208 79 27 31.6 5.6 12.9
4/21/21 50.1 1724 29.9 0612 0.00 125.50 0.0 72.8 5.7 22.6 0019 NNE | 26 90 26 30.9 4.5 12.9
4/20/21 49.6 1408 32.7 2340 0.00 125.50 0.0 74.2 6.5 23.3 1319 WSW | 241 87 26 33.7 0.0 12.8
4/19/21 57.0 1543 40.2 0445 0.00 125.50 0.0 75.5 4.1 18.0 1829 WSW | 241 60 25 35.9 0.0 12.9
4/18/21 62.1 1527 33.3 0636 0.00 125.50 0.0 76.9 4.6 15.5 0508 NE | 55 52 12 32.4 7.8 12.9
4/17/21 44.3 1431 28.8 0732 0.00 125.50 0.0 78.3 8.6 28.9 0342 ENE | 74 60 23 28.3 11.1 12.9
4/16/21 48.4 1625 29.0 0616 0.00 125.50 0.0 79.4 3.4 13.3 1319 NNE | 18 76 31 30.0 6.6 12.9
4/15/21 45.0 1538 23.9 0402 0.00 125.50 0.0 80.3 3.4 13.0 1220 W | 262 93 34 28.0 9.0 12.9
4/14/21 38.5 1433 20.6 0538 0.05 125.50 0.0 81.8 4.5 15.0 1704 NNW | 344 99 60 25.2 20.0 13.0
4/13/21 40.4 1400 23.8 2316 0.22 125.40 2.7 82.9 8.1 30.9 0507 WSW | 257 100 42 28.3 9.6 12.9
4/12/21 56.5 1428 29.5 0602 0.00 125.20 0.0 81.0 4.3 17.0 1753 WNW | 302 64 24 31.3 7.7 12.9
4/11/21 60.3 1402 35.5 0001 0.00 125.20 0.0 82.0 3.8 17.6 0120 NNW | 335 63 18 32.6 4.4 12.9
4/10/21 53.1 1157 32.5 0527 0.00 125.20 0.0 83.2 5.2 18.0 1349 NW | 313 56 20 31.6 7.8 12.9
4/9/21 51.3 1311 32.0 0612 0.00 125.20 0.0 84.7 6.8 19.6 0958 SW | 224 68 29 32.3 2.8 12.9
4/8/21 45.8 1441 30.4 0642 0.00 125.20 0.0 85.9 7.2 19.2 1555 W | 260 66 32 29.3 9.7 12.9
4/7/21 43.3 1155 32.0 2356 0.00 125.20 0.0 87.3 11.5 34.0 1314 WSW | 245 88 27 30.1 7.7 12.9
4/6/21 53.3 1523 30.7 0445 0.00 125.20 0.0 88.7 3.9 15.6 2330 SW | 225 79 22 32.4 5.7 12.9
4/5/21 43.9 1720 27.6 0829 0.05 125.20 0.0 89.8 9.8 31.2 0238 SW | 229 95 34 31.1 2.4 12.9
Max 71.7 - 47.9 - 0.44 - 4.7 89.8 17.4 48.2 - - 100 83 40.3 24.0 13.0
Avg - - - - - - 0.2 74.3 6.8 - - - - - 31.3 - -
Min 27.9 - 16.2 - 0.00 - 0.0 50.4 2.7 12.9 - - 52 11 20.6 0.0 12.8
Calm: 1.0%
Calm: 0.0%